Time;durP1;ratioP1;P1;durP2;ratioP2;P2;SDS_P1;SDS_P2;PMS_P1;PMS_P2;Temp;Humidity;BMP_temperature;BMP_pressure;BME280_temperature;BME280_humidity;BME280_pressure;Samples;Min_cycle;Max_cycle;Signal;HPM_P1;HPM_P2
2024/04/09 00:00:08;;;;;;;8.95;3.75;;;;;;;;;;4906756;29;20047;-81
2024/04/09 00:02:37;;;;;;;6.15;3.03;;;;;;;;;;4922861;29;20491;-81
2024/04/09 00:05:08;;;;;;;8.32;3.08;;;;;;;;;;4921787;29;20048;-80
2024/04/09 00:07:38;;;;;;;8.98;3.22;;;;;;;;;;4924010;29;20055;-81
2024/04/09 00:10:06;;;;;;;9.13;3.13;;;;;;;;;;4923802;29;20044;-83
2024/04/09 00:12:36;;;;;;;7.40;3.03;;;;;;;;;;4908118;29;20526;-84
2024/04/09 00:15:07;;;;;;;6.43;3.25;;;;;;;;;;4890187;29;20048;-83
2024/04/09 00:17:44;;;;;;;7.60;3.55;;;;;;;;;;4905737;29;20066;-80
2024/04/09 00:20:17;;;;;;;6.18;2.95;;;;;;;;;;4921510;29;20052;-81
2024/04/09 00:22:46;;;;;;;5.25;2.63;;;;;;;;;;4921915;29;20050;-82
2024/04/09 00:25:18;;;;;;;5.35;3.35;;;;;;;;;;4922443;29;20040;-80
2024/04/09 00:27:47;;;;;;;;;;;;;;;;;;4890673;29;20403;-81
2024/04/09 00:30:17;;;;;;;8.27;3.60;;;;;;;;;;4920822;29;19923;-84
2024/04/09 00:32:51;;;;;;;7.40;3.08;;;;;;;;;;4920800;29;20063;-82
2024/04/09 00:35:21;;;;;;;8.05;3.10;;;;;;;;;;4905742;29;20044;-82
2024/04/09 00:37:56;;;;;;;6.43;2.83;;;;;;;;;;4920743;29;20056;-81
2024/04/09 00:40:29;;;;;;;5.55;2.90;;;;;;;;;;4891258;29;20058;-82
2024/04/09 00:43:00;;;;;;;6.65;2.80;;;;;;;;;;4922060;29;20044;-81
2024/04/09 00:45:29;;;;;;;7.45;3.08;;;;;;;;;;4906668;29;20044;-81
2024/04/09 00:48:02;;;;;;;10.68;3.97;;;;;;;;;;4906455;29;20052;-83
2024/04/09 00:50:35;;;;;;;6.40;2.92;;;;;;;;;;4905923;29;20047;-82
2024/04/09 00:53:06;;;;;;;9.57;3.20;;;;;;;;;;4922362;29;20506;-81
2024/04/09 00:55:40;;;;;;;7.95;2.90;;;;;;;;;;4889833;29;20066;-82
2024/04/09 00:58:13;;;;;;;7.68;3.17;;;;;;;;;;4889679;29;20478;-83
2024/04/09 01:00:42;;;;;;;8.32;3.30;;;;;;;;;;4919819;29;20055;-81
2024/04/09 01:03:11;;;;;;;9.63;3.05;;;;;;;;;;4919700;29;20135;-81
2024/04/09 01:05:40;;;;;;;9.73;3.40;;;;;;;;;;4903271;29;20051;-82
2024/04/09 01:08:08;;;;;;;4.85;2.85;;;;;;;;;;4903099;29;20055;-82
2024/04/09 01:10:36;;;;;;;9.07;2.70;;;;;;;;;;4887059;29;20410;-84
2024/04/09 01:13:04;;;;;;;10.88;3.13;;;;;;;;;;4903441;29;20044;-82
2024/04/09 01:15:36;;;;;;;11.88;3.65;;;;;;;;;;4870883;29;20051;-82
2024/04/09 01:18:04;;;;;;;12.05;2.80;;;;;;;;;;4901813;29;20417;-82
2024/04/09 01:20:32;;;;;;;6.60;3.28;;;;;;;;;;4886784;29;20130;-82
2024/04/09 01:23:00;;;;;;;6.43;2.88;;;;;;;;;;4902922;29;20055;-84
2024/04/09 01:25:28;;;;;;;8.93;2.85;;;;;;;;;;4872491;29;20048;-82
2024/04/09 01:27:57;;;;;;;8.57;3.53;;;;;;;;;;4903329;29;20052;-82
2024/04/09 01:30:26;;;;;;;7.43;3.25;;;;;;;;;;4903329;29;20048;-83
2024/04/09 01:32:54;;;;;;;6.55;3.13;;;;;;;;;;4888651;29;20068;-82
2024/04/09 01:35:23;;;;;;;9.50;2.80;;;;;;;;;;4904299;29;20418;-81
2024/04/09 01:37:51;;;;;;;8.05;3.13;;;;;;;;;;4888535;29;20063;-86
2024/04/09 01:40:19;;;;;;;10.02;4.07;;;;;;;;;;4887354;29;20067;-85
2024/04/09 01:42:48;;;;;;;10.57;4.57;;;;;;;;;;4901761;29;20067;-81
2024/04/09 01:45:17;;;;;;;10.50;3.50;;;;;;;;;;4904745;29;20055;-81
2024/04/09 01:47:46;;;;;;;7.97;3.55;;;;;;;;;;4886519;29;20063;-82
2024/04/09 01:50:14;;;;;;;8.55;3.78;;;;;;;;;;4901985;29;20068;-85
2024/04/09 01:52:42;;;;;;;9.52;3.97;;;;;;;;;;4885445;29;20059;-81
2024/04/09 01:55:11;;;;;;;8.63;3.50;;;;;;;;;;4902678;29;20063;-82
2024/04/09 01:57:41;;;;;;;8.95;3.35;;;;;;;;;;4901680;29;20394;-84
2024/04/09 02:00:12;;;;;;;9.80;3.85;;;;;;;;;;4900736;29;20510;-81
2024/04/09 02:02:46;;;;;;;7.88;4.20;;;;;;;;;;4886278;29;20059;-81
2024/04/09 02:05:14;;;;;;;8.77;3.75;;;;;;;;;;4901216;29;20059;-84
2024/04/09 02:07:43;;;;;;;8.73;3.70;;;;;;;;;;4885511;29;20036;-82
2024/04/09 02:10:11;;;;;;;6.30;3.60;;;;;;;;;;4885870;29;20067;-86
2024/04/09 02:12:40;;;;;;;9.15;3.65;;;;;;;;;;4885159;29;20048;-85
2024/04/09 02:15:12;;;;;;;10.63;3.42;;;;;;;;;;4901424;29;20068;-81
2024/04/09 02:17:40;;;;;;;;;;;;;;;;;;4901300;29;20526;-81
2024/04/09 02:20:10;;;;;;;13.60;3.72;;;;;;;;;;4916183;29;19923;-81
2024/04/09 02:22:38;;;;;;;9.70;3.28;;;;;;;;;;4900626;29;20056;-86
2024/04/09 02:25:07;;;;;;;11.32;4.05;;;;;;;;;;4900596;29;20040;-81
2024/04/09 02:27:35;;;;;;;13.27;4.18;;;;;;;;;;4900810;29;20051;-81
2024/04/09 02:30:03;;;;;;;12.02;4.30;;;;;;;;;;4916964;29;20055;-81
2024/04/09 02:32:32;;;;;;;10.13;4.47;;;;;;;;;;4916188;29;20052;-80
2024/04/09 02:35:01;;;;;;;11.75;4.72;;;;;;;;;;4920522;29;20052;-81
2024/04/09 02:37:29;;;;;;;9.07;5.20;;;;;;;;;;4895652;29;20057;-81
2024/04/09 02:39:58;;;;;;;9.88;4.43;;;;;;;;;;4927597;29;20071;-81
2024/04/09 02:42:28;;;;;;;7.05;3.75;;;;;;;;;;4914270;29;20034;-81
2024/04/09 02:44:56;;;;;;;11.95;5.85;;;;;;;;;;4924724;29;20039;-81
2024/04/09 02:47:24;;;;;;;9.30;3.90;;;;;;;;;;4924756;29;20032;-81
2024/04/09 02:49:54;;;;;;;6.45;3.25;;;;;;;;;;4924745;29;20035;-82
2024/04/09 02:52:22;;;;;;;5.47;3.13;;;;;;;;;;4918164;29;20048;-82
2024/04/09 02:54:51;;;;;;;6.28;4.00;;;;;;;;;;4902017;29;20059;-82
2024/04/09 02:57:20;;;;;;;14.35;4.55;;;;;;;;;;4888145;29;20507;-82
2024/04/09 02:59:52;;;;;;;10.18;4.97;;;;;;;;;;4873539;29;20078;-82
2024/04/09 03:02:21;;;;;;;12.15;5.32;;;;;;;;;;4904289;29;20506;-80
2024/04/09 03:04:51;;;;;;;11.80;4.20;;;;;;;;;;4888811;29;20431;-83
2024/04/09 03:07:20;;;;;;;15.43;5.15;;;;;;;;;;4904177;29;20055;-81
2024/04/09 03:09:49;;;;;;;11.60;5.03;;;;;;;;;;4904964;29;20048;-83
2024/04/09 03:12:17;;;;;;;12.73;4.90;;;;;;;;;;4907688;29;20043;-83
2024/04/09 03:14:45;;;;;;;9.80;5.30;;;;;;;;;;4892424;29;20063;-81
2024/04/09 03:17:16;;;;;;;9.43;4.45;;;;;;;;;;4907599;29;20063;-80
2024/04/09 03:19:49;;;;;;;13.10;5.57;;;;;;;;;;4922850;29;20055;-81
2024/04/09 03:22:17;;;;;;;11.25;5.38;;;;;;;;;;4908247;29;20044;-82
2024/04/09 03:24:48;;;;;;;12.30;6.25;;;;;;;;;;4892103;29;20067;-81
2024/04/09 03:27:16;;;;;;;11.68;5.00;;;;;;;;;;4907939;29;20047;-80
2024/04/09 03:29:48;;;;;;;9.48;4.55;;;;;;;;;;4923020;29;20510;-81
2024/04/09 03:32:17;;;;;;;10.68;4.60;;;;;;;;;;4923214;29;20062;-81
2024/04/09 03:34:46;;;;;;;10.73;4.57;;;;;;;;;;4922729;29;20048;-81
2024/04/09 03:37:15;;;;;;;14.93;4.40;;;;;;;;;;4922659;29;20509;-81
2024/04/09 03:39:43;;;;;;;12.80;4.22;;;;;;;;;;4891380;29;20056;-83
2024/04/09 03:42:11;;;;;;;10.65;4.00;;;;;;;;;;4923019;29;20048;-81
2024/04/09 03:44:39;;;;;;;11.98;4.22;;;;;;;;;;4907150;29;20051;-81
2024/04/09 03:47:08;;;;;;;8.40;4.30;;;;;;;;;;4922770;29;20043;-81
2024/04/09 03:49:37;;;;;;;10.77;5.10;;;;;;;;;;4923185;29;20040;-81
2024/04/09 03:52:05;;;;;;;11.65;5.43;;;;;;;;;;4908714;29;20508;-81
2024/04/09 03:54:34;;;;;;;14.07;4.35;;;;;;;;;;4923457;29;20055;-84
2024/04/09 03:57:05;;;;;;;12.05;5.82;;;;;;;;;;4907813;29;20043;-83
2024/04/09 03:59:36;;;;;;;14.90;5.40;;;;;;;;;;4924761;29;20043;-85
2024/04/09 04:02:04;;;;;;;15.30;5.28;;;;;;;;;;4907723;29;20062;-82
2024/04/09 04:04:32;;;;;;;9.77;5.25;;;;;;;;;;4922013;29;20056;-83
2024/04/09 04:07:00;;;;;;;10.90;4.97;;;;;;;;;;4921945;29;20056;-82
2024/04/09 04:09:28;;;;;;;11.43;6.05;;;;;;;;;;4923764;29;20052;-85
2024/04/09 04:11:56;;;;;;;10.23;5.18;;;;;;;;;;4907633;29;20054;-85
2024/04/09 04:14:25;;;;;;;15.30;4.90;;;;;;;;;;4923996;29;20048;-83
2024/04/09 04:16:53;;;;;;;11.73;4.82;;;;;;;;;;4925407;29;20070;-82
2024/04/09 04:19:22;;;;;;;10.50;5.03;;;;;;;;;;4892153;29;20051;-83
2024/04/09 04:21:50;;;;;;;11.55;4.97;;;;;;;;;;4924007;29;20043;-82
2024/04/09 04:24:18;;;;;;;14.63;4.57;;;;;;;;;;4925515;29;20048;-84
2024/04/09 04:26:46;;;;;;;11.60;5.00;;;;;;;;;;4892010;29;20059;-83
2024/04/09 04:29:14;;;;;;;7.40;4.82;;;;;;;;;;4906551;29;20073;-82
2024/04/09 04:31:42;;;;;;;12.57;4.47;;;;;;;;;;4910456;29;20167;-82
2024/04/09 04:34:10;;;;;;;9.00;4.57;;;;;;;;;;4907644;29;20070;-82
2024/04/09 04:37:28;;;;;;;12.80;4.68;;;;;;;;;;4909025;29;20059;-82
2024/04/09 04:39:57;;;;;;;11.40;3.72;;;;;;;;;;4923059;29;20426;-82
2024/04/09 04:42:25;;;;;;;12.50;4.55;;;;;;;;;;4908109;29;20054;-79
2024/04/09 04:44:53;;;;;;;11.13;4.78;;;;;;;;;;4908032;29;20078;-82
2024/04/09 04:47:22;;;;;;;9.93;5.25;;;;;;;;;;4906644;29;20070;-84
2024/04/09 04:49:50;;;;;;;11.80;5.05;;;;;;;;;;4922111;29;20043;-82
2024/04/09 04:52:18;;;;;;;12.07;5.20;;;;;;;;;;4923516;29;20039;-82
2024/04/09 04:54:46;;;;;;;16.85;5.63;;;;;;;;;;4923228;29;20052;-81
2024/04/09 04:57:14;;;;;;;11.98;5.10;;;;;;;;;;4906186;29;20074;-82
2024/04/09 04:59:42;;;;;;;13.57;5.40;;;;;;;;;;4924204;29;20040;-82
2024/04/09 05:02:11;;;;;;;11.55;5.75;;;;;;;;;;4907668;29;20438;-82
2024/04/09 05:04:39;;;;;;;13.50;5.78;;;;;;;;;;4904762;29;20052;-82
2024/04/09 05:07:08;;;;;;;10.70;6.20;;;;;;;;;;4910076;29;20044;-81
2024/04/09 05:09:36;;;;;;;10.68;6.15;;;;;;;;;;4891114;29;20066;-82
2024/04/09 05:12:04;;;;;;;12.48;5.10;;;;;;;;;;4920707;29;20050;-82
2024/04/09 05:14:32;;;;;;;13.38;4.82;;;;;;;;;;4905549;29;20051;-82
2024/04/09 05:17:01;;;;;;;15.32;5.82;;;;;;;;;;4906970;29;20127;-81
2024/04/09 05:19:29;;;;;;;10.27;5.80;;;;;;;;;;4921864;29;20052;-82
2024/04/09 05:21:57;;;;;;;10.27;4.75;;;;;;;;;;4923525;29;20395;-80
2024/04/09 05:24:25;;;;;;;12.23;5.97;;;;;;;;;;4894086;29;20055;-80
2024/04/09 05:26:53;;;;;;;16.08;6.32;;;;;;;;;;4924419;29;20054;-82
2024/04/09 05:29:22;;;;;;;13.25;5.30;;;;;;;;;;4905697;29;20391;-82
2024/04/09 05:31:50;;;;;;;14.70;5.80;;;;;;;;;;4906346;29;20063;-82
2024/04/09 05:34:19;;;;;;;9.77;5.30;;;;;;;;;;4906346;29;20483;-81
2024/04/09 05:36:47;;;;;;;9.70;5.88;;;;;;;;;;4910340;29;20048;-84
2024/04/09 05:39:16;;;;;;;9.85;5.38;;;;;;;;;;4893664;29;20071;-82
2024/04/09 05:41:44;;;;;;;9.20;4.43;;;;;;;;;;4908005;29;20414;-81
2024/04/09 05:44:12;;;;;;;12.65;5.65;;;;;;;;;;4924393;29;20055;-80
2024/04/09 05:46:41;;;;;;;11.85;4.82;;;;;;;;;;4893371;29;20074;-82
2024/04/09 05:49:10;;;;;;;12.15;5.65;;;;;;;;;;4906768;29;20052;-81
2024/04/09 05:51:38;;;;;;;15.18;6.00;;;;;;;;;;4924813;29;20043;-82
2024/04/09 05:54:06;;;;;;;13.20;5.63;;;;;;;;;;4908500;29;20066;-81
2024/04/09 05:56:34;;;;;;;11.73;5.95;;;;;;;;;;4906874;29;20051;-80
2024/04/09 05:59:02;;;;;;;12.00;5.85;;;;;;;;;;4893623;29;20060;-81
2024/04/09 06:01:30;;;;;;;13.13;6.43;;;;;;;;;;4909222;29;20059;-81
2024/04/09 06:03:58;;;;;;;14.98;6.13;;;;;;;;;;4906735;29;20062;-82
2024/04/09 06:06:26;;;;;;;16.80;4.10;;;;;;;;;;4923124;29;20390;-82
2024/04/09 06:08:55;;;;;;;13.18;5.20;;;;;;;;;;4908251;29;20059;-83
2024/04/09 06:11:23;;;;;;;9.93;4.78;;;;;;;;;;4908604;29;20490;-80
2024/04/09 06:13:54;;;;;;;9.18;4.13;;;;;;;;;;4922796;29;20048;-82
2024/04/09 06:16:23;;;;;;;11.02;3.95;;;;;;;;;;4924004;29;20398;-81
2024/04/09 06:18:51;;;;;;;9.25;4.03;;;;;;;;;;4921598;29;20059;-81
2024/04/09 06:21:19;;;;;;;15.63;4.93;;;;;;;;;;4907596;29;20478;-82
2024/04/09 06:23:47;;;;;;;14.98;5.10;;;;;;;;;;4907646;29;20075;-81
2024/04/09 06:26:18;;;;;;;15.68;5.47;;;;;;;;;;4923366;29;20048;-80
2024/04/09 06:28:47;;;;;;;10.65;4.70;;;;;;;;;;4904139;29;20055;-81
2024/04/09 06:31:15;;;;;;;10.38;5.05;;;;;;;;;;4921071;29;20047;-82
2024/04/09 06:33:46;;;;;;;13.57;6.00;;;;;;;;;;4904784;29;20056;-85
2024/04/09 06:36:14;;;;;;;12.40;5.75;;;;;;;;;;4904531;29;20051;-82
2024/04/09 06:38:43;;;;;;;18.15;6.88;;;;;;;;;;4904532;29;20048;-86
2024/04/09 06:41:12;;;;;;;17.35;6.68;;;;;;;;;;4909775;29;20056;-82
2024/04/09 06:43:40;;;;;;;18.38;7.88;;;;;;;;;;4922736;29;20047;-82
2024/04/09 06:46:10;;;;;;;15.35;6.35;;;;;;;;;;4925273;29;20046;-82
2024/04/09 06:48:38;;;;;;;15.80;6.97;;;;;;;;;;4927068;29;20133;-81
2024/04/09 06:51:06;;;;;;;13.85;6.55;;;;;;;;;;4892492;29;20056;-80
2024/04/09 06:53:34;;;;;;;15.30;6.75;;;;;;;;;;4906792;29;20070;-83
2024/04/09 06:56:03;;;;;;;13.27;7.00;;;;;;;;;;4919494;29;20040;-82
2024/04/09 06:58:31;;;;;;;23.55;6.70;;;;;;;;;;4920323;29;20040;-83
2024/04/09 07:00:59;;;;;;;17.50;7.07;;;;;;;;;;4920202;29;20054;-82
2024/04/09 07:03:27;;;;;;;22.95;6.38;;;;;;;;;;4904879;29;20063;-82
2024/04/09 07:05:57;;;;;;;20.35;5.88;;;;;;;;;;4906456;29;20039;-83
2024/04/09 07:08:25;;;;;;;14.70;5.90;;;;;;;;;;4905741;29;20059;-81
2024/04/09 07:10:55;;;;;;;12.32;6.30;;;;;;;;;;4919870;29;20052;-81
2024/04/09 07:13:23;;;;;;;17.17;6.15;;;;;;;;;;4919735;29;20060;-80
2024/04/09 07:15:51;;;;;;;14.57;6.40;;;;;;;;;;4920223;29;20052;-82
2024/04/09 07:18:20;;;;;;;15.70;6.75;;;;;;;;;;4903183;29;20509;-85
2024/04/09 07:20:50;;;;;;;15.27;6.22;;;;;;;;;;4904283;29;20052;-81
2024/04/09 07:23:18;;;;;;;12.63;5.18;;;;;;;;;;4903614;29;20059;-81
2024/04/09 07:25:46;;;;;;;14.05;6.07;;;;;;;;;;4919882;29;20351;-82
2024/04/09 07:28:14;;;;;;;12.82;5.57;;;;;;;;;;4919833;29;20048;-84
2024/04/09 07:30:42;;;;;;;12.10;5.22;;;;;;;;;;4888269;29;20052;-84
2024/04/09 07:33:10;;;;;;;15.43;5.18;;;;;;;;;;4903391;29;20050;-81
2024/04/09 07:35:38;;;;;;;11.18;5.70;;;;;;;;;;4919423;29;20482;-82
2024/04/09 07:38:07;;;;;;;9.38;6.03;;;;;;;;;;4919397;29;20052;-81
2024/04/09 07:40:35;;;;;;;10.52;5.78;;;;;;;;;;4920428;29;20486;-84
2024/04/09 07:43:04;;;;;;;9.93;4.40;;;;;;;;;;4907594;29;20418;-81
2024/04/09 07:45:33;;;;;;;13.70;6.18;;;;;;;;;;4923249;29;20051;-81
2024/04/09 07:48:01;;;;;;;7.63;4.20;;;;;;;;;;4906154;29;20395;-81
2024/04/09 07:50:29;;;;;;;11.48;5.68;;;;;;;;;;4907548;29;20043;-83
2024/04/09 07:52:57;;;;;;;21.77;5.40;;;;;;;;;;4922409;29;20055;-81
2024/04/09 07:55:25;;;;;;;14.63;4.53;;;;;;;;;;4923137;29;20055;-84
2024/04/09 07:57:55;;;;;;;22.77;5.82;;;;;;;;;;4891709;29;20062;-84
2024/04/09 08:00:24;;;;;;;26.95;5.97;;;;;;;;;;4907859;29;20055;-79
2024/04/09 08:02:52;;;;;;;41.25;5.32;;;;;;;;;;4908532;29;20048;-80
2024/04/09 08:05:21;;;;;;;12.30;5.35;;;;;;;;;;4924071;29;20048;-83
2024/04/09 08:07:49;;;;;;;16.80;5.63;;;;;;;;;;4923889;29;20059;-83
2024/04/09 08:10:21;;;;;;;18.58;4.78;;;;;;;;;;4908249;29;20060;-85
2024/04/09 08:12:50;;;;;;;8.45;5.10;;;;;;;;;;4925391;29;20047;-81
2024/04/09 08:15:22;;;;;;;14.40;4.68;;;;;;;;;;4907736;29;20052;-81
2024/04/09 08:17:51;;;;;;;12.40;4.72;;;;;;;;;;4909037;29;20052;-81
2024/04/09 08:20:19;;;;;;;16.77;4.43;;;;;;;;;;4924750;29;20039;-81
2024/04/09 08:22:49;;;;;;;8.98;5.03;;;;;;;;;;4907908;29;20051;-82
2024/04/09 08:25:18;;;;;;;13.88;4.50;;;;;;;;;;4907546;29;20056;-83
2024/04/09 08:27:47;;;;;;;7.53;4.05;;;;;;;;;;4925024;29;20047;-82
2024/04/09 08:30:23;;;;;;;8.82;3.30;;;;;;;;;;4907996;29;20052;-81
2024/04/09 08:32:52;;;;;;;8.70;3.70;;;;;;;;;;4922799;29;20051;-81
2024/04/09 08:35:22;;;;;;;9.63;3.00;;;;;;;;;;4906754;29;20553;-82
2024/04/09 08:37:50;;;;;;;8.10;3.00;;;;;;;;;;4892164;29;20066;-82
2024/04/09 08:40:19;;;;;;;10.20;2.80;;;;;;;;;;4911502;29;20555;-81
2024/04/09 08:42:53;;;;;;;6.25;3.58;;;;;;;;;;4933512;29;20047;-81
2024/04/09 08:45:23;;;;;;;8.73;3.75;;;;;;;;;;4936773;29;20039;-82
2024/04/09 08:47:53;;;;;;;10.13;4.30;;;;;;;;;;4924623;29;20032;-83
2024/04/09 08:50:21;;;;;;;9.68;5.43;;;;;;;;;;4945803;28;20042;-83
2024/04/09 08:52:49;;;;;;;9.20;4.40;;;;;;;;;;4944495;28;20034;-84
2024/04/09 08:55:18;;;;;;;8.23;4.43;;;;;;;;;;4929770;29;20035;-82
2024/04/09 08:57:46;;;;;;;10.75;5.00;;;;;;;;;;4921538;29;20048;-81
2024/04/09 09:00:18;;;;;;;10.75;4.60;;;;;;;;;;4921078;29;20051;-81
2024/04/09 09:02:47;;;;;;;17.38;4.60;;;;;;;;;;4921530;29;20052;-82
2024/04/09 09:05:19;;;;;;;12.45;5.30;;;;;;;;;;4920932;29;20058;-84
2024/04/09 09:07:59;;;;;;;11.05;4.47;;;;;;;;;;4906361;29;20055;-83
2024/04/09 09:10:27;;;;;;;9.32;4.45;;;;;;;;;;4906994;29;20055;-80
2024/04/09 09:13:02;;;;;;;9.20;4.10;;;;;;;;;;4922162;29;20043;-82
2024/04/09 09:15:31;;;;;;;8.15;4.32;;;;;;;;;;4890603;29;20058;-81
2024/04/09 09:18:24;;;;;;;8.23;3.38;;;;;;;;;;4905878;29;20398;-81
2024/04/09 09:21:02;;;;;;;20.17;4.30;;;;;;;;;;4906783;29;20052;-81
2024/04/09 09:23:31;;;;;;;6.38;4.35;;;;;;;;;;4907259;29;20486;-81
2024/04/09 09:25:59;;;;;;;15.80;3.40;;;;;;;;;;4920830;29;20378;-82
2024/04/09 09:28:29;;;;;;;5.80;4.07;;;;;;;;;;4889748;29;20060;-80
2024/04/09 09:30:57;;;;;;;17.58;4.38;;;;;;;;;;4904581;29;20070;-83
2024/04/09 09:33:29;;;;;;;8.48;4.30;;;;;;;;;;4889897;29;20055;-79
2024/04/09 09:35:59;;;;;;;6.03;4.30;;;;;;;;;;4921752;29;20051;-81
2024/04/09 09:38:28;;;;;;;11.23;4.45;;;;;;;;;;4891205;29;20055;-82
2024/04/09 09:41:00;;;;;;;11.07;3.30;;;;;;;;;;4923847;29;20414;-83
2024/04/09 09:43:28;;;;;;;13.43;3.72;;;;;;;;;;4920667;29;20055;-80
2024/04/09 09:45:57;;;;;;;7.22;3.60;;;;;;;;;;4890127;29;20398;-81
2024/04/09 09:48:25;;;;;;;9.32;4.10;;;;;;;;;;4907163;29;20043;-81
2024/04/09 09:50:54;;;;;;;14.65;4.00;;;;;;;;;;4906103;29;20051;-82
2024/04/09 09:53:22;;;;;;;9.57;4.07;;;;;;;;;;4905343;29;20136;-82
2024/04/09 09:55:53;;;;;;;11.52;3.75;;;;;;;;;;4919857;29;20039;-81
2024/04/09 09:58:25;;;;;;;19.20;3.92;;;;;;;;;;4914650;29;20067;-81
2024/04/09 10:00:59;;;;;;;18.67;3.45;;;;;;;;;;4898774;29;20111;-82
2024/04/09 10:03:28;;;;;;;5.18;3.33;;;;;;;;;;4883302;29;20060;-81
2024/04/09 10:05:59;;;;;;;23.98;2.95;;;;;;;;;;4879713;29;20428;-82
2024/04/09 10:08:28;;;;;;;15.02;4.13;;;;;;;;;;4911389;29;20167;-82
2024/04/09 10:10:58;;;;;;;13.93;3.78;;;;;;;;;;4892975;29;20044;-80
2024/04/09 10:13:28;;;;;;;8.88;3.28;;;;;;;;;;4895895;29;20060;-81
2024/04/09 10:15:57;;;;;;;9.18;3.08;;;;;;;;;;4898601;29;20044;-82
2024/04/09 10:18:37;;;;;;;18.85;3.08;;;;;;;;;;4882649;29;20056;-82
2024/04/09 10:21:05;;;;;;;13.90;3.05;;;;;;;;;;4883027;29;20048;-85
2024/04/09 10:23:39;;;;;;;24.17;3.17;;;;;;;;;;4898435;29;20506;-81
2024/04/09 10:26:11;;;;;;;21.52;3.63;;;;;;;;;;4884818;29;20049;-85
2024/04/09 10:28:39;;;;;;;19.02;3.40;;;;;;;;;;4917565;29;20063;-82
2024/04/09 10:31:09;;;;;;;34.58;3.67;;;;;;;;;;4901756;29;20502;-81
2024/04/09 10:33:39;;;;;;;7.07;3.80;;;;;;;;;;4901400;29;20062;-82
2024/04/09 10:36:09;;;;;;;8.20;2.70;;;;;;;;;;4915409;29;20430;-82
2024/04/09 10:38:41;;;;;;;14.43;3.22;;;;;;;;;;4916876;29;20044;-82
2024/04/09 10:41:10;;;;;;;14.80;3.92;;;;;;;;;;4916401;29;20047;-82
2024/04/09 10:43:38;;;;;;;11.00;2.85;;;;;;;;;;4895394;29;20063;-82
2024/04/09 10:46:07;;;;;;;27.65;3.53;;;;;;;;;;4914072;29;20064;-82
2024/04/09 10:48:35;;;;;;;10.90;2.47;;;;;;;;;;4895324;29;20052;-84
2024/04/09 10:51:04;;;;;;;14.40;2.15;;;;;;;;;;4908225;29;20440;-82
2024/04/09 10:53:35;;;;;;;9.82;2.15;;;;;;;;;;4896437;29;20047;-82
2024/04/09 10:56:03;;;;;;;3.58;2.42;;;;;;;;;;4901332;29;20068;-82
2024/04/09 10:58:36;;;;;;;14.18;2.50;;;;;;;;;;4886753;29;20059;-83
2024/04/09 11:01:05;;;;;;;9.05;2.58;;;;;;;;;;4884303;29;20048;-85
2024/04/09 11:03:34;;;;;;;19.08;2.40;;;;;;;;;;4887260;29;20056;-83
2024/04/09 11:06:02;;;;;;;12.10;2.92;;;;;;;;;;4912793;29;20056;-80
2024/04/09 11:08:34;;;;;;;7.22;2.38;;;;;;;;;;4918878;29;20039;-80
2024/04/09 11:11:02;;;;;;;7.38;2.17;;;;;;;;;;4917843;29;20528;-82
2024/04/09 11:13:31;;;;;;;4.00;2.03;;;;;;;;;;4886097;29;20051;-80
2024/04/09 11:16:01;;;;;;;9.15;2.35;;;;;;;;;;4904700;29;20502;-83
2024/04/09 11:18:30;;;;;;;10.40;2.30;;;;;;;;;;4916576;29;20047;-82
2024/04/09 11:21:03;;;;;;;11.50;1.80;;;;;;;;;;4920530;29;20453;-82
2024/04/09 11:23:31;;;;;;;8.27;1.52;;;;;;;;;;4922025;29;20406;-84
2024/04/09 11:26:01;;;;;;;13.35;2.40;;;;;;;;;;4906279;29;20047;-82
2024/04/09 11:28:30;;;;;;;5.45;3.20;;;;;;;;;;4908789;29;20043;-83
2024/04/09 11:31:00;;;;;;;7.82;3.58;;;;;;;;;;4923016;29;20036;-80
2024/04/09 11:33:28;;;;;;;8.73;5.28;;;;;;;;;;4908117;29;20047;-81
2024/04/09 11:35:59;;;;;;;11.30;5.55;;;;;;;;;;4920306;29;20043;-82
2024/04/09 11:38:30;;;;;;;9.18;5.63;;;;;;;;;;4907815;29;20059;-81
2024/04/09 11:40:58;;;;;;;8.55;5.88;;;;;;;;;;4890550;29;20055;-81
2024/04/09 11:43:26;;;;;;;11.65;5.93;;;;;;;;;;4904702;29;20071;-81
2024/04/09 11:45:59;;;;;;;12.90;5.00;;;;;;;;;;4918018;29;20040;-83
2024/04/09 11:48:28;;;;;;;10.00;4.55;;;;;;;;;;4875392;29;20052;-82
2024/04/09 11:50:56;;;;;;;7.35;4.70;;;;;;;;;;4891532;29;20498;-81
2024/04/09 11:53:25;;;;;;;8.40;5.13;;;;;;;;;;4923854;29;20060;-82
2024/04/09 11:55:56;;;;;;;10.52;5.88;;;;;;;;;;4906304;29;20047;-81
2024/04/09 11:58:24;;;;;;;13.95;5.80;;;;;;;;;;4923085;29;20055;-81
2024/04/09 12:00:52;;;;;;;8.68;5.40;;;;;;;;;;4924603;29;20059;-82
2024/04/09 12:03:22;;;;;;;11.93;4.80;;;;;;;;;;4919946;29;20056;-82
2024/04/09 12:05:50;;;;;;;13.88;7.38;;;;;;;;;;4919007;29;20486;-82
2024/04/09 12:08:19;;;;;;;11.68;6.75;;;;;;;;;;4919788;29;20418;-82
2024/04/09 12:10:48;;;;;;;23.92;13.00;;;;;;;;;;4920087;29;20047;-81
2024/04/09 12:13:16;;;;;;;21.00;11.85;;;;;;;;;;4922222;29;20059;-82
2024/04/09 12:15:44;;;;;;;20.00;12.30;;;;;;;;;;4903245;29;20044;-81
2024/04/09 12:18:12;;;;;;;17.55;10.98;;;;;;;;;;4910748;29;20509;-81
2024/04/09 12:20:42;;;;;;;17.90;11.02;;;;;;;;;;4903827;29;20074;-82
2024/04/09 12:23:12;;;;;;;14.63;8.55;;;;;;;;;;4919151;29;20052;-83
2024/04/09 12:25:41;;;;;;;13.32;7.78;;;;;;;;;;4904059;29;20051;-87
2024/04/09 12:28:09;;;;;;;14.38;7.95;;;;;;;;;;4901737;29;20062;-83
2024/04/09 12:30:38;;;;;;;13.48;8.55;;;;;;;;;;4919060;29;20064;-82
2024/04/09 12:33:07;;;;;;;15.40;7.65;;;;;;;;;;4888110;29;20518;-83
2024/04/09 12:35:35;;;;;;;13.55;6.93;;;;;;;;;;4922302;29;20067;-84
2024/04/09 12:38:04;;;;;;;7.35;4.75;;;;;;;;;;4903353;29;20971;-83
2024/04/09 12:40:33;;;;;;;7.35;4.15;;;;;;;;;;4900593;29;20059;-85
2024/04/09 12:43:01;;;;;;;10.05;6.70;;;;;;;;;;4918146;29;20048;-83
2024/04/09 12:45:29;;;;;;;4.15;2.47;;;;;;;;;;4904063;29;20047;-84
2024/04/09 12:47:57;;;;;;;4.88;2.30;;;;;;;;;;4902581;29;20414;-83
2024/04/09 12:50:25;;;;;;;6.25;3.90;;;;;;;;;;4919396;29;20059;-82
2024/04/09 12:52:55;;;;;;;5.78;2.75;;;;;;;;;;4919143;29;20048;-84
2024/04/09 12:55:24;;;;;;;5.35;3.25;;;;;;;;;;4918719;29;20048;-84
2024/04/09 12:57:52;;;;;;;4.45;2.72;;;;;;;;;;4905239;29;20048;-86
2024/04/09 13:00:21;;;;;;;3.75;2.00;;;;;;;;;;4904977;29;20060;-84
2024/04/09 13:02:49;;;;;;;2.83;1.80;;;;;;;;;;4921917;29;20052;-85
2024/04/09 13:05:17;;;;;;;3.08;1.73;;;;;;;;;;4905008;29;20077;-82
2024/04/09 13:07:45;;;;;;;4.50;1.65;;;;;;;;;;4919681;29;20051;-83
2024/04/09 13:10:16;;;;;;;3.50;1.90;;;;;;;;;;4897828;29;20055;-83
2024/04/09 13:12:46;;;;;;;2.22;1.60;;;;;;;;;;4907579;29;20048;-86
2024/04/09 13:15:15;;;;;;;3.97;1.80;;;;;;;;;;4917958;29;20063;-81
2024/04/09 13:17:46;;;;;;;3.60;1.73;;;;;;;;;;4896865;29;20055;-83
2024/04/09 13:20:16;;;;;;;2.92;1.92;;;;;;;;;;4912044;29;20479;-82
2024/04/09 13:22:45;;;;;;;3.38;1.80;;;;;;;;;;4884466;29;20044;-85
2024/04/09 13:25:13;;;;;;;2.47;1.70;;;;;;;;;;4900677;29;20056;-86
2024/04/09 13:27:43;;;;;;;3.85;1.70;;;;;;;;;;4907619;29;20505;-84
2024/04/09 13:30:13;;;;;;;4.10;1.80;;;;;;;;;;4897355;29;20051;-83
2024/04/09 13:32:42;;;;;;;2.55;1.70;;;;;;;;;;4900052;29;20063;-82
2024/04/09 13:35:10;;;;;;;2.20;1.48;;;;;;;;;;4918049;29;20158;-82
2024/04/09 13:37:43;;;;;;;2.92;1.30;;;;;;;;;;4916979;29;20036;-83
2024/04/09 13:40:12;;;;;;;3.85;1.60;;;;;;;;;;4917913;29;20063;-82
2024/04/09 13:42:42;;;;;;;3.95;1.42;;;;;;;;;;4901123;29;20665;-81
2024/04/09 13:45:11;;;;;;;1.90;1.20;;;;;;;;;;4917340;29;20056;-85
2024/04/09 13:47:40;;;;;;;2.95;0.90;;;;;;;;;;4883236;29;20384;-81
2024/04/09 13:50:09;;;;;;;2.78;1.60;;;;;;;;;;4910596;29;20505;-85
2024/04/09 13:52:37;;;;;;;3.28;1.40;;;;;;;;;;4897903;29;20060;-82
2024/04/09 13:55:08;;;;;;;2.17;1.67;;;;;;;;;;4913870;29;20044;-83
2024/04/09 13:57:36;;;;;;;2.35;1.50;;;;;;;;;;4916976;29;20043;-83
2024/04/09 14:00:07;;;;;;;3.00;2.25;;;;;;;;;;4899026;29;20056;-81
2024/04/09 14:02:41;;;;;;;3.15;2.08;;;;;;;;;;4917669;29;20071;-82
2024/04/09 14:05:10;;;;;;;6.90;1.83;;;;;;;;;;4898316;29;20048;-81
2024/04/09 14:07:39;;;;;;;2.17;1.80;;;;;;;;;;4898236;29;20075;-82
2024/04/09 14:10:08;;;;;;;2.78;1.70;;;;;;;;;;4915566;29;20074;-83
2024/04/09 14:12:36;;;;;;;1.70;1.38;;;;;;;;;;4935932;29;20066;-82
2024/04/09 14:15:05;;;;;;;4.18;1.70;;;;;;;;;;4914085;29;20044;-82
2024/04/09 14:19:32;;;;;;;2.35;1.17;;;;;;;;;;5542486;25;20081;-83
2024/04/09 14:22:03;;;;;;;2.42;1.17;;;;;;;;;;5505870;26;20038;-82
2024/04/09 14:24:33;;;;;;;1.52;0.82;;;;;;;;;;5508242;26;20026;-83
2024/04/09 14:27:04;;;;;;;3.45;2.08;;;;;;;;;;5508165;26;20018;-82
2024/04/09 14:29:34;;;;;;;;;;;;;;;;;;5508551;26;20042;-82
2024/04/09 14:32:04;;;;;;;1.05;0.85;;;;;;;;;;5505690;26;19948;-81
2024/04/09 14:34:35;;;;;;;2.40;1.02;;;;;;;;;;5501268;26;20029;-81
2024/04/09 14:37:05;;;;;;;2.72;0.73;;;;;;;;;;5504858;26;20025;-81
2024/04/09 14:39:35;;;;;;;1.70;0.95;;;;;;;;;;5509867;26;20034;-80
2024/04/09 14:42:06;;;;;;;0.93;0.70;;;;;;;;;;5505012;26;20026;-82
2024/04/09 14:44:37;;;;;;;1.63;0.73;;;;;;;;;;5475099;26;20026;-81
2024/04/09 14:47:31;;;;;;;1.23;0.68;;;;;;;;;;5506547;26;20027;-81
2024/04/09 14:50:02;;;;;;;1.88;0.70;;;;;;;;;;5504800;26;20030;-84